sensor_id;sensor_type;location;lat;lon;timestamp;temperature;humidity
40828;DHT22;26549;50.918;5.338;2023-06-22T00:01:17;23.10;98.60
40828;DHT22;26549;50.918;5.338;2023-06-22T00:03:44;22.90;99.30
40828;DHT22;26549;50.918;5.338;2023-06-22T00:06:11;22.90;99.20
40828;DHT22;26549;50.918;5.338;2023-06-22T00:08:36;22.80;99.20
40828;DHT22;26549;50.918;5.338;2023-06-22T00:11:05;22.70;99.10
40828;DHT22;26549;50.918;5.338;2023-06-22T00:13:31;22.80;99.00
40828;DHT22;26549;50.918;5.338;2023-06-22T00:15:56;22.70;99.50
40828;DHT22;26549;50.918;5.338;2023-06-22T00:18:23;22.70;99.20
40828;DHT22;26549;50.918;5.338;2023-06-22T00:20:56;22.70;99.50
40828;DHT22;26549;50.918;5.338;2023-06-22T00:23:24;22.80;99.60
40828;DHT22;26549;50.918;5.338;2023-06-22T00:25:50;22.90;99.10
40828;DHT22;26549;50.918;5.338;2023-06-22T00:28:16;22.90;99.20
40828;DHT22;26549;50.918;5.338;2023-06-22T00:30:42;22.80;99.00
40828;DHT22;26549;50.918;5.338;2023-06-22T00:33:07;22.80;99.30
40828;DHT22;26549;50.918;5.338;2023-06-22T00:35:33;22.90;99.30
40828;DHT22;26549;50.918;5.338;2023-06-22T00:38:00;22.90;99.00
40828;DHT22;26549;50.918;5.338;2023-06-22T00:40:32;23.00;98.80
40828;DHT22;26549;50.918;5.338;2023-06-22T00:43:02;22.90;98.80
40828;DHT22;26549;50.918;5.338;2023-06-22T00:45:27;22.80;98.60
40828;DHT22;26549;50.918;5.338;2023-06-22T00:47:56;22.80;98.90
40828;DHT22;26549;50.918;5.338;2023-06-22T00:50:27;22.80;99.00
40828;DHT22;26549;50.918;5.338;2023-06-22T00:52:56;22.80;98.80
40828;DHT22;26549;50.918;5.338;2023-06-22T00:55:26;22.70;99.10
40828;DHT22;26549;50.918;5.338;2023-06-22T00:57:53;22.80;99.00
40828;DHT22;26549;50.918;5.338;2023-06-22T01:00:23;22.70;99.30
40828;DHT22;26549;50.918;5.338;2023-06-22T01:02:53;22.70;98.90
40828;DHT22;26549;50.918;5.338;2023-06-22T01:05:21;22.70;98.70
40828;DHT22;26549;50.918;5.338;2023-06-22T01:18:43;22.50;99.20
40828;DHT22;26549;50.918;5.338;2023-06-22T01:21:15;22.40;99.30
40828;DHT22;26549;50.918;5.338;2023-06-22T01:28:57;22.30;99.60
40828;DHT22;26549;50.918;5.338;2023-06-22T01:31:26;22.40;99.70
40828;DHT22;26549;50.918;5.338;2023-06-22T01:34:01;22.40;99.30
40828;DHT22;26549;50.918;5.338;2023-06-22T01:36:31;22.30;99.60
40828;DHT22;26549;50.918;5.338;2023-06-22T01:39:02;22.40;99.30
40828;DHT22;26549;50.918;5.338;2023-06-22T01:41:36;22.40;99.70
40828;DHT22;26549;50.918;5.338;2023-06-22T01:44:07;22.30;99.70
40828;DHT22;26549;50.918;5.338;2023-06-22T01:46:35;22.40;99.60
40828;DHT22;26549;50.918;5.338;2023-06-22T01:49:04;22.50;99.70
40828;DHT22;26549;50.918;5.338;2023-06-22T01:51:31;22.60;99.70
40828;DHT22;26549;50.918;5.338;2023-06-22T01:53:58;22.50;99.40
40828;DHT22;26549;50.918;5.338;2023-06-22T01:56:26;22.50;99.90
40828;DHT22;26549;50.918;5.338;2023-06-22T01:59:17;22.40;99.90
40828;DHT22;26549;50.918;5.338;2023-06-22T02:02:07;22.40;99.70
40828;DHT22;26549;50.918;5.338;2023-06-22T02:04:56;22.40;99.80
40828;DHT22;26549;50.918;5.338;2023-06-22T02:07:27;22.30;99.90
40828;DHT22;26549;50.918;5.338;2023-06-22T02:09:58;22.40;99.90
40828;DHT22;26549;50.918;5.338;2023-06-22T02:12:26;22.40;99.90
40828;DHT22;26549;50.918;5.338;2023-06-22T02:14:53;22.40;99.90
40828;DHT22;26549;50.918;5.338;2023-06-22T02:17:21;22.40;99.90
40828;DHT22;26549;50.918;5.338;2023-06-22T02:19:46;22.30;99.90
40828;DHT22;26549;50.918;5.338;2023-06-22T02:22:12;22.20;99.90
40828;DHT22;26549;50.918;5.338;2023-06-22T02:24:42;22.20;99.90
40828;DHT22;26549;50.918;5.338;2023-06-22T02:27:08;22.20;99.90
40828;DHT22;26549;50.918;5.338;2023-06-22T02:29:36;22.10;99.90
40828;DHT22;26549;50.918;5.338;2023-06-22T02:32:02;22.10;99.90
40828;DHT22;26549;50.918;5.338;2023-06-22T02:34:29;22.00;99.90
40828;DHT22;26549;50.918;5.338;2023-06-22T02:36:55;22.20;99.90
40828;DHT22;26549;50.918;5.338;2023-06-22T02:39:24;22.30;99.90
40828;DHT22;26549;50.918;5.338;2023-06-22T02:41:53;22.20;99.90
40828;DHT22;26549;50.918;5.338;2023-06-22T02:44:21;21.90;99.90
40828;DHT22;26549;50.918;5.338;2023-06-22T02:46:47;21.80;99.90
40828;DHT22;26549;50.918;5.338;2023-06-22T02:49:14;21.80;99.90
40828;DHT22;26549;50.918;5.338;2023-06-22T02:51:45;21.70;99.90
40828;DHT22;26549;50.918;5.338;2023-06-22T02:54:12;21.70;99.90
40828;DHT22;26549;50.918;5.338;2023-06-22T02:56:39;21.80;99.90
40828;DHT22;26549;50.918;5.338;2023-06-22T02:59:09;21.80;99.90
40828;DHT22;26549;50.918;5.338;2023-06-22T03:01:37;21.70;99.90
40828;DHT22;26549;50.918;5.338;2023-06-22T03:04:09;21.70;99.90
40828;DHT22;26549;50.918;5.338;2023-06-22T03:06:36;21.60;99.90
40828;DHT22;26549;50.918;5.338;2023-06-22T03:09:05;21.70;99.90
40828;DHT22;26549;50.918;5.338;2023-06-22T03:11:34;21.60;99.90
40828;DHT22;26549;50.918;5.338;2023-06-22T03:14:03;21.50;99.90
40828;DHT22;26549;50.918;5.338;2023-06-22T03:16:30;21.60;99.90
40828;DHT22;26549;50.918;5.338;2023-06-22T03:18:56;21.60;99.90
40828;DHT22;26549;50.918;5.338;2023-06-22T03:21:23;21.70;99.90
40828;DHT22;26549;50.918;5.338;2023-06-22T03:23:50;21.70;99.90
40828;DHT22;26549;50.918;5.338;2023-06-22T03:26:19;21.70;99.90
40828;DHT22;26549;50.918;5.338;2023-06-22T03:28:47;21.70;99.90
40828;DHT22;26549;50.918;5.338;2023-06-22T03:31:14;21.70;99.90
40828;DHT22;26549;50.918;5.338;2023-06-22T03:33:40;21.70;99.90
40828;DHT22;26549;50.918;5.338;2023-06-22T03:36:06;21.80;99.90
40828;DHT22;26549;50.918;5.338;2023-06-22T03:38:33;21.90;99.90
40828;DHT22;26549;50.918;5.338;2023-06-22T03:41:02;21.90;99.90
40828;DHT22;26549;50.918;5.338;2023-06-22T03:43:29;21.80;99.90
40828;DHT22;26549;50.918;5.338;2023-06-22T03:45:54;21.80;99.90
40828;DHT22;26549;50.918;5.338;2023-06-22T03:48:21;21.80;99.90
40828;DHT22;26549;50.918;5.338;2023-06-22T03:50:47;21.70;99.90
40828;DHT22;26549;50.918;5.338;2023-06-22T03:53:14;21.70;99.90
40828;DHT22;26549;50.918;5.338;2023-06-22T03:55:50;21.90;99.90
40828;DHT22;26549;50.918;5.338;2023-06-22T03:58:17;22.00;99.90
40828;DHT22;26549;50.918;5.338;2023-06-22T04:00:47;22.10;99.90
40828;DHT22;26549;50.918;5.338;2023-06-22T04:03:15;22.20;99.90
40828;DHT22;26549;50.918;5.338;2023-06-22T04:05:42;22.20;99.90
40828;DHT22;26549;50.918;5.338;2023-06-22T04:08:10;22.20;99.90
40828;DHT22;26549;50.918;5.338;2023-06-22T04:10:36;22.30;99.90
40828;DHT22;26549;50.918;5.338;2023-06-22T04:13:02;22.40;99.90
40828;DHT22;26549;50.918;5.338;2023-06-22T04:15:27;22.40;99.90
40828;DHT22;26549;50.918;5.338;2023-06-22T04:17:54;22.30;99.90
40828;DHT22;26549;50.918;5.338;2023-06-22T04:20:23;22.30;99.90
40828;DHT22;26549;50.918;5.338;2023-06-22T04:22:54;22.40;99.90
40828;DHT22;26549;50.918;5.338;2023-06-22T04:25:20;22.40;99.90
40828;DHT22;26549;50.918;5.338;2023-06-22T04:27:48;22.50;99.90
40828;DHT22;26549;50.918;5.338;2023-06-22T04:30:17;22.40;99.90
40828;DHT22;26549;50.918;5.338;2023-06-22T04:32:44;22.40;99.90
40828;DHT22;26549;50.918;5.338;2023-06-22T04:35:11;22.40;99.90
40828;DHT22;26549;50.918;5.338;2023-06-22T04:37:37;22.40;99.90
40828;DHT22;26549;50.918;5.338;2023-06-22T04:40:05;22.30;99.90
40828;DHT22;26549;50.918;5.338;2023-06-22T04:42:33;22.40;99.90
40828;DHT22;26549;50.918;5.338;2023-06-22T04:44:59;22.40;99.90
40828;DHT22;26549;50.918;5.338;2023-06-22T04:47:25;22.40;99.90
40828;DHT22;26549;50.918;5.338;2023-06-22T04:49:50;22.20;99.90
40828;DHT22;26549;50.918;5.338;2023-06-22T04:52:16;21.80;99.90
40828;DHT22;26549;50.918;5.338;2023-06-22T04:54:48;21.60;99.90
40828;DHT22;26549;50.918;5.338;2023-06-22T04:57:14;21.70;99.90
40828;DHT22;26549;50.918;5.338;2023-06-22T04:59:41;21.70;99.90
40828;DHT22;26549;50.918;5.338;2023-06-22T05:02:09;21.50;99.90
40828;DHT22;26549;50.918;5.338;2023-06-22T05:04:35;21.50;99.90
40828;DHT22;26549;50.918;5.338;2023-06-22T05:07:04;21.50;99.90
40828;DHT22;26549;50.918;5.338;2023-06-22T05:09:30;21.20;99.90
40828;DHT22;26549;50.918;5.338;2023-06-22T05:11:56;21.10;99.90
40828;DHT22;26549;50.918;5.338;2023-06-22T05:14:22;21.10;99.90
40828;DHT22;26549;50.918;5.338;2023-06-22T05:16:48;21.10;99.90
40828;DHT22;26549;50.918;5.338;2023-06-22T05:19:14;20.90;99.90
40828;DHT22;26549;50.918;5.338;2023-06-22T05:21:40;21.00;99.90
40828;DHT22;26549;50.918;5.338;2023-06-22T05:24:06;21.10;99.90
40828;DHT22;26549;50.918;5.338;2023-06-22T05:26:33;20.90;99.90
40828;DHT22;26549;50.918;5.338;2023-06-22T05:29:00;20.90;99.90
40828;DHT22;26549;50.918;5.338;2023-06-22T05:31:26;20.90;99.90
40828;DHT22;26549;50.918;5.338;2023-06-22T05:33:54;20.90;99.90
40828;DHT22;26549;50.918;5.338;2023-06-22T05:36:20;20.90;99.90
40828;DHT22;26549;50.918;5.338;2023-06-22T05:38:47;21.00;99.90
40828;DHT22;26549;50.918;5.338;2023-06-22T05:41:13;21.10;99.90
40828;DHT22;26549;50.918;5.338;2023-06-22T05:43:39;21.10;99.90
40828;DHT22;26549;50.918;5.338;2023-06-22T05:46:05;21.10;99.90
40828;DHT22;26549;50.918;5.338;2023-06-22T05:48:31;21.20;99.90
40828;DHT22;26549;50.918;5.338;2023-06-22T05:50:57;21.10;99.90
40828;DHT22;26549;50.918;5.338;2023-06-22T05:53:23;21.30;99.90
40828;DHT22;26549;50.918;5.338;2023-06-22T05:55:49;21.20;99.90
40828;DHT22;26549;50.918;5.338;2023-06-22T05:58:15;21.20;99.90
40828;DHT22;26549;50.918;5.338;2023-06-22T06:00:41;21.10;99.90
40828;DHT22;26549;50.918;5.338;2023-06-22T06:03:08;21.20;99.90
40828;DHT22;26549;50.918;5.338;2023-06-22T06:05:34;21.30;99.90
40828;DHT22;26549;50.918;5.338;2023-06-22T06:08:01;21.40;99.90
40828;DHT22;26549;50.918;5.338;2023-06-22T06:10:27;21.40;99.90
40828;DHT22;26549;50.918;5.338;2023-06-22T06:12:55;21.50;99.90
40828;DHT22;26549;50.918;5.338;2023-06-22T06:15:21;21.50;99.90
40828;DHT22;26549;50.918;5.338;2023-06-22T06:17:48;21.50;99.90
40828;DHT22;26549;50.918;5.338;2023-06-22T06:20:14;21.40;99.90
40828;DHT22;26549;50.918;5.338;2023-06-22T06:22:40;21.30;99.90
40828;DHT22;26549;50.918;5.338;2023-06-22T06:25:06;21.20;99.90
40828;DHT22;26549;50.918;5.338;2023-06-22T06:27:32;21.30;99.90
40828;DHT22;26549;50.918;5.338;2023-06-22T06:29:57;21.30;99.90
40828;DHT22;26549;50.918;5.338;2023-06-22T06:32:23;21.40;99.90
40828;DHT22;26549;50.918;5.338;2023-06-22T06:34:49;21.40;99.90
40828;DHT22;26549;50.918;5.338;2023-06-22T06:37:16;21.30;99.90
40828;DHT22;26549;50.918;5.338;2023-06-22T06:39:41;21.30;99.90
40828;DHT22;26549;50.918;5.338;2023-06-22T06:42:07;21.30;99.90
40828;DHT22;26549;50.918;5.338;2023-06-22T06:44:33;21.20;99.90
40828;DHT22;26549;50.918;5.338;2023-06-22T06:47:03;21.20;99.90
40828;DHT22;26549;50.918;5.338;2023-06-22T06:49:29;21.30;99.90
40828;DHT22;26549;50.918;5.338;2023-06-22T06:51:55;21.20;99.90
40828;DHT22;26549;50.918;5.338;2023-06-22T06:54:21;21.20;99.90
40828;DHT22;26549;50.918;5.338;2023-06-22T06:56:47;21.30;99.90
40828;DHT22;26549;50.918;5.338;2023-06-22T06:59:14;21.30;99.90
40828;DHT22;26549;50.918;5.338;2023-06-22T07:01:41;21.40;99.90
40828;DHT22;26549;50.918;5.338;2023-06-22T07:04:07;21.40;99.90
40828;DHT22;26549;50.918;5.338;2023-06-22T07:06:33;21.50;99.90
40828;DHT22;26549;50.918;5.338;2023-06-22T07:08:59;21.40;99.90
40828;DHT22;26549;50.918;5.338;2023-06-22T07:11:25;21.50;99.90
40828;DHT22;26549;50.918;5.338;2023-06-22T07:13:51;21.30;99.90
40828;DHT22;26549;50.918;5.338;2023-06-22T07:16:17;21.10;99.90
40828;DHT22;26549;50.918;5.338;2023-06-22T07:18:42;21.20;99.90
40828;DHT22;26549;50.918;5.338;2023-06-22T07:21:08;21.40;99.90
40828;DHT22;26549;50.918;5.338;2023-06-22T07:23:34;21.40;99.90
40828;DHT22;26549;50.918;5.338;2023-06-22T07:26:03;21.50;99.90
40828;DHT22;26549;50.918;5.338;2023-06-22T07:28:32;21.60;99.90
40828;DHT22;26549;50.918;5.338;2023-06-22T07:31:02;21.70;99.90
40828;DHT22;26549;50.918;5.338;2023-06-22T07:33:31;21.60;99.90
40828;DHT22;26549;50.918;5.338;2023-06-22T07:35:57;21.60;99.90
40828;DHT22;26549;50.918;5.338;2023-06-22T07:38:23;21.60;99.90
40828;DHT22;26549;50.918;5.338;2023-06-22T07:40:49;21.80;99.90
40828;DHT22;26549;50.918;5.338;2023-06-22T07:43:16;22.00;99.90
40828;DHT22;26549;50.918;5.338;2023-06-22T07:45:48;22.10;99.90
40828;DHT22;26549;50.918;5.338;2023-06-22T07:48:19;22.20;99.90
40828;DHT22;26549;50.918;5.338;2023-06-22T07:50:45;21.90;99.90
40828;DHT22;26549;50.918;5.338;2023-06-22T07:53:13;21.90;99.90
40828;DHT22;26549;50.918;5.338;2023-06-22T07:55:39;21.90;99.90
40828;DHT22;26549;50.918;5.338;2023-06-22T07:58:05;22.00;99.90
40828;DHT22;26549;50.918;5.338;2023-06-22T08:00:30;22.10;99.90
40828;DHT22;26549;50.918;5.338;2023-06-22T08:02:56;22.20;99.90
40828;DHT22;26549;50.918;5.338;2023-06-22T08:05:22;22.40;99.90
40828;DHT22;26549;50.918;5.338;2023-06-22T08:07:48;22.50;99.90
40828;DHT22;26549;50.918;5.338;2023-06-22T08:10:14;22.70;99.90
40828;DHT22;26549;50.918;5.338;2023-06-22T08:12:40;22.80;99.90
40828;DHT22;26549;50.918;5.338;2023-06-22T08:15:07;22.80;99.90
40828;DHT22;26549;50.918;5.338;2023-06-22T08:17:39;22.80;99.90
40828;DHT22;26549;50.918;5.338;2023-06-22T08:20:05;22.80;99.90
40828;DHT22;26549;50.918;5.338;2023-06-22T08:22:38;22.60;99.90
40828;DHT22;26549;50.918;5.338;2023-06-22T08:25:04;22.80;99.90
40828;DHT22;26549;50.918;5.338;2023-06-22T08:27:31;23.10;99.90
40828;DHT22;26549;50.918;5.338;2023-06-22T08:29:59;23.20;99.90
40828;DHT22;26549;50.918;5.338;2023-06-22T08:32:26;23.30;99.90
40828;DHT22;26549;50.918;5.338;2023-06-22T08:34:57;23.40;99.90
40828;DHT22;26549;50.918;5.338;2023-06-22T08:37:23;23.40;99.90
40828;DHT22;26549;50.918;5.338;2023-06-22T08:39:59;23.50;99.90
40828;DHT22;26549;50.918;5.338;2023-06-22T08:42:27;23.70;99.90
40828;DHT22;26549;50.918;5.338;2023-06-22T08:44:53;23.70;99.90
40828;DHT22;26549;50.918;5.338;2023-06-22T08:47:19;23.70;99.90
40828;DHT22;26549;50.918;5.338;2023-06-22T08:49:46;23.70;99.90
40828;DHT22;26549;50.918;5.338;2023-06-22T08:52:12;23.80;99.90
40828;DHT22;26549;50.918;5.338;2023-06-22T08:54:38;23.90;99.90
40828;DHT22;26549;50.918;5.338;2023-06-22T08:57:04;23.90;99.90
40828;DHT22;26549;50.918;5.338;2023-06-22T08:59:30;23.90;99.90
40828;DHT22;26549;50.918;5.338;2023-06-22T09:01:56;24.00;99.90
40828;DHT22;26549;50.918;5.338;2023-06-22T09:04:22;23.70;99.90
40828;DHT22;26549;50.918;5.338;2023-06-22T09:06:48;23.70;99.90
40828;DHT22;26549;50.918;5.338;2023-06-22T09:09:16;23.60;99.90
40828;DHT22;26549;50.918;5.338;2023-06-22T09:11:42;23.60;99.90
40828;DHT22;26549;50.918;5.338;2023-06-22T09:14:08;23.50;99.90
40828;DHT22;26549;50.918;5.338;2023-06-22T09:16:35;23.60;99.90
40828;DHT22;26549;50.918;5.338;2023-06-22T09:19:01;23.50;99.90
40828;DHT22;26549;50.918;5.338;2023-06-22T09:21:26;23.50;99.90
40828;DHT22;26549;50.918;5.338;2023-06-22T09:23:52;23.50;99.90
40828;DHT22;26549;50.918;5.338;2023-06-22T09:26:19;23.60;99.90
40828;DHT22;26549;50.918;5.338;2023-06-22T09:28:45;23.60;99.90
40828;DHT22;26549;50.918;5.338;2023-06-22T09:31:11;23.80;99.90
40828;DHT22;26549;50.918;5.338;2023-06-22T09:33:37;23.80;99.90
40828;DHT22;26549;50.918;5.338;2023-06-22T09:36:06;23.80;99.90
40828;DHT22;26549;50.918;5.338;2023-06-22T09:38:37;23.50;99.90
40828;DHT22;26549;50.918;5.338;2023-06-22T09:41:03;23.60;99.90
40828;DHT22;26549;50.918;5.338;2023-06-22T09:43:31;23.50;99.90
40828;DHT22;26549;50.918;5.338;2023-06-22T09:45:59;23.50;99.90
40828;DHT22;26549;50.918;5.338;2023-06-22T09:48:24;23.70;99.90
40828;DHT22;26549;50.918;5.338;2023-06-22T09:50:50;23.70;99.90
40828;DHT22;26549;50.918;5.338;2023-06-22T09:53:16;23.90;99.90
40828;DHT22;26549;50.918;5.338;2023-06-22T09:55:41;24.00;99.90
40828;DHT22;26549;50.918;5.338;2023-06-22T09:58:07;24.00;99.90
40828;DHT22;26549;50.918;5.338;2023-06-22T10:00:34;24.10;99.90
40828;DHT22;26549;50.918;5.338;2023-06-22T10:03:00;24.10;99.90
40828;DHT22;26549;50.918;5.338;2023-06-22T10:05:25;24.10;99.90
40828;DHT22;26549;50.918;5.338;2023-06-22T10:07:51;24.20;99.90
40828;DHT22;26549;50.918;5.338;2023-06-22T10:10:17;24.00;99.90
40828;DHT22;26549;50.918;5.338;2023-06-22T10:12:47;23.70;99.90
40828;DHT22;26549;50.918;5.338;2023-06-22T10:15:14;23.70;99.90
40828;DHT22;26549;50.918;5.338;2023-06-22T10:17:40;23.80;99.90
40828;DHT22;26549;50.918;5.338;2023-06-22T10:20:07;23.90;99.90
40828;DHT22;26549;50.918;5.338;2023-06-22T10:22:43;23.80;99.90
40828;DHT22;26549;50.918;5.338;2023-06-22T10:25:11;23.60;99.90
40828;DHT22;26549;50.918;5.338;2023-06-22T10:27:38;23.30;99.90
40828;DHT22;26549;50.918;5.338;2023-06-22T10:30:07;23.20;99.90
40828;DHT22;26549;50.918;5.338;2023-06-22T10:32:32;23.20;99.90
40828;DHT22;26549;50.918;5.338;2023-06-22T10:34:58;23.10;99.90
40828;DHT22;26549;50.918;5.338;2023-06-22T10:37:24;22.90;99.90
40828;DHT22;26549;50.918;5.338;2023-06-22T10:39:50;22.70;99.90
40828;DHT22;26549;50.918;5.338;2023-06-22T10:42:18;22.60;99.90
40828;DHT22;26549;50.918;5.338;2023-06-22T10:44:43;22.50;99.90
40828;DHT22;26549;50.918;5.338;2023-06-22T10:47:10;22.40;99.90
40828;DHT22;26549;50.918;5.338;2023-06-22T10:49:38;22.50;99.90
40828;DHT22;26549;50.918;5.338;2023-06-22T10:52:06;22.40;99.90
40828;DHT22;26549;50.918;5.338;2023-06-22T10:54:34;22.50;99.90
40828;DHT22;26549;50.918;5.338;2023-06-22T10:57:02;22.30;99.90
40828;DHT22;26549;50.918;5.338;2023-06-22T10:59:28;22.20;99.90
40828;DHT22;26549;50.918;5.338;2023-06-22T11:01:56;22.30;99.90
40828;DHT22;26549;50.918;5.338;2023-06-22T11:04:23;22.20;99.90
40828;DHT22;26549;50.918;5.338;2023-06-22T11:06:49;22.30;99.90
40828;DHT22;26549;50.918;5.338;2023-06-22T11:09:15;22.40;99.90
40828;DHT22;26549;50.918;5.338;2023-06-22T11:11:50;22.10;99.90
40828;DHT22;26549;50.918;5.338;2023-06-22T11:14:16;21.90;99.90
40828;DHT22;26549;50.918;5.338;2023-06-22T11:16:42;21.80;99.90
40828;DHT22;26549;50.918;5.338;2023-06-22T11:19:08;21.80;99.90
40828;DHT22;26549;50.918;5.338;2023-06-22T11:21:35;22.10;99.90
40828;DHT22;26549;50.918;5.338;2023-06-22T11:24:01;22.00;99.90
40828;DHT22;26549;50.918;5.338;2023-06-22T11:26:28;22.00;99.90
40828;DHT22;26549;50.918;5.338;2023-06-22T11:28:53;21.90;99.90
40828;DHT22;26549;50.918;5.338;2023-06-22T11:31:19;22.00;99.90
40828;DHT22;26549;50.918;5.338;2023-06-22T11:33:46;21.90;99.90
40828;DHT22;26549;50.918;5.338;2023-06-22T11:36:14;21.80;99.90
40828;DHT22;26549;50.918;5.338;2023-06-22T11:38:40;21.80;99.90
40828;DHT22;26549;50.918;5.338;2023-06-22T11:41:08;21.80;99.90
40828;DHT22;26549;50.918;5.338;2023-06-22T11:43:34;21.80;99.90
40828;DHT22;26549;50.918;5.338;2023-06-22T11:46:02;21.80;99.90
40828;DHT22;26549;50.918;5.338;2023-06-22T11:48:30;21.80;99.90
40828;DHT22;26549;50.918;5.338;2023-06-22T11:50:56;21.80;99.90
40828;DHT22;26549;50.918;5.338;2023-06-22T11:53:23;21.70;99.90
40828;DHT22;26549;50.918;5.338;2023-06-22T11:55:49;21.80;99.90
40828;DHT22;26549;50.918;5.338;2023-06-22T11:58:15;21.70;99.90
40828;DHT22;26549;50.918;5.338;2023-06-22T12:00:42;21.70;99.90
40828;DHT22;26549;50.918;5.338;2023-06-22T12:03:08;21.60;99.90
40828;DHT22;26549;50.918;5.338;2023-06-22T12:05:34;21.40;99.90
40828;DHT22;26549;50.918;5.338;2023-06-22T12:08:00;21.30;99.90
40828;DHT22;26549;50.918;5.338;2023-06-22T12:10:26;21.30;99.90
40828;DHT22;26549;50.918;5.338;2023-06-22T12:12:55;21.40;99.90
40828;DHT22;26549;50.918;5.338;2023-06-22T12:15:23;21.40;99.90
40828;DHT22;26549;50.918;5.338;2023-06-22T12:17:49;21.40;99.90
40828;DHT22;26549;50.918;5.338;2023-06-22T12:20:15;21.40;99.90
40828;DHT22;26549;50.918;5.338;2023-06-22T12:22:41;21.50;99.90
40828;DHT22;26549;50.918;5.338;2023-06-22T12:25:07;21.60;99.90
40828;DHT22;26549;50.918;5.338;2023-06-22T12:27:34;21.60;99.90
40828;DHT22;26549;50.918;5.338;2023-06-22T12:30:00;21.40;99.90
40828;DHT22;26549;50.918;5.338;2023-06-22T12:32:26;21.10;99.90
40828;DHT22;26549;50.918;5.338;2023-06-22T12:34:52;21.20;99.90
40828;DHT22;26549;50.918;5.338;2023-06-22T12:37:18;21.30;99.90
40828;DHT22;26549;50.918;5.338;2023-06-22T12:39:44;21.30;99.90
40828;DHT22;26549;50.918;5.338;2023-06-22T12:42:10;21.20;99.90
40828;DHT22;26549;50.918;5.338;2023-06-22T12:44:39;21.00;99.90
40828;DHT22;26549;50.918;5.338;2023-06-22T12:47:05;21.10;99.90
40828;DHT22;26549;50.918;5.338;2023-06-22T12:49:31;21.10;99.90
40828;DHT22;26549;50.918;5.338;2023-06-22T12:51:57;21.00;99.90
40828;DHT22;26549;50.918;5.338;2023-06-22T12:54:23;21.00;99.90
40828;DHT22;26549;50.918;5.338;2023-06-22T12:56:50;20.90;99.90
40828;DHT22;26549;50.918;5.338;2023-06-22T12:59:16;20.90;99.90
40828;DHT22;26549;50.918;5.338;2023-06-22T13:01:43;20.90;99.90
40828;DHT22;26549;50.918;5.338;2023-06-22T13:04:11;20.70;99.90
40828;DHT22;26549;50.918;5.338;2023-06-22T13:06:43;20.60;99.90
40828;DHT22;26549;50.918;5.338;2023-06-22T13:09:10;20.70;99.90
40828;DHT22;26549;50.918;5.338;2023-06-22T13:11:36;20.80;99.90
40828;DHT22;26549;50.918;5.338;2023-06-22T13:14:02;20.80;99.90
40828;DHT22;26549;50.918;5.338;2023-06-22T13:16:28;20.70;99.90
40828;DHT22;26549;50.918;5.338;2023-06-22T13:18:54;20.60;99.90
40828;DHT22;26549;50.918;5.338;2023-06-22T13:21:19;20.60;99.90
40828;DHT22;26549;50.918;5.338;2023-06-22T13:23:45;20.60;99.90
40828;DHT22;26549;50.918;5.338;2023-06-22T13:26:11;20.80;99.90
40828;DHT22;26549;50.918;5.338;2023-06-22T13:28:38;20.70;99.90
40828;DHT22;26549;50.918;5.338;2023-06-22T13:31:04;20.50;99.90
40828;DHT22;26549;50.918;5.338;2023-06-22T13:33:31;20.50;99.90
40828;DHT22;26549;50.918;5.338;2023-06-22T13:35:57;20.30;99.90
40828;DHT22;26549;50.918;5.338;2023-06-22T13:38:22;20.30;99.90
40828;DHT22;26549;50.918;5.338;2023-06-22T13:40:49;20.20;99.90
40828;DHT22;26549;50.918;5.338;2023-06-22T13:43:16;20.10;99.90
40828;DHT22;26549;50.918;5.338;2023-06-22T13:45:42;20.20;99.90
40828;DHT22;26549;50.918;5.338;2023-06-22T13:48:08;20.10;99.90
40828;DHT22;26549;50.918;5.338;2023-06-22T13:50:34;20.20;99.90
40828;DHT22;26549;50.918;5.338;2023-06-22T13:53:00;20.10;99.90
40828;DHT22;26549;50.918;5.338;2023-06-22T13:55:26;20.10;99.90
40828;DHT22;26549;50.918;5.338;2023-06-22T13:57:52;20.10;99.90
40828;DHT22;26549;50.918;5.338;2023-06-22T14:00:18;20.00;99.90
40828;DHT22;26549;50.918;5.338;2023-06-22T14:02:44;20.00;99.90
40828;DHT22;26549;50.918;5.338;2023-06-22T14:05:10;20.00;99.90
40828;DHT22;26549;50.918;5.338;2023-06-22T14:07:37;19.90;99.90
40828;DHT22;26549;50.918;5.338;2023-06-22T14:10:04;19.90;99.90
40828;DHT22;26549;50.918;5.338;2023-06-22T14:12:30;19.80;99.90
40828;DHT22;26549;50.918;5.338;2023-06-22T14:14:57;19.80;99.90
40828;DHT22;26549;50.918;5.338;2023-06-22T14:17:23;19.60;99.90
40828;DHT22;26549;50.918;5.338;2023-06-22T14:19:51;19.60;99.90
40828;DHT22;26549;50.918;5.338;2023-06-22T14:22:21;19.60;99.90
40828;DHT22;26549;50.918;5.338;2023-06-22T14:24:47;19.60;99.90
40828;DHT22;26549;50.918;5.338;2023-06-22T14:27:14;19.70;99.90
40828;DHT22;26549;50.918;5.338;2023-06-22T14:29:42;19.80;99.90
40828;DHT22;26549;50.918;5.338;2023-06-22T14:32:09;19.60;99.90
40828;DHT22;26549;50.918;5.338;2023-06-22T14:34:35;19.60;99.90
40828;DHT22;26549;50.918;5.338;2023-06-22T14:37:07;19.50;99.90
40828;DHT22;26549;50.918;5.338;2023-06-22T14:39:36;19.50;99.90
40828;DHT22;26549;50.918;5.338;2023-06-22T14:42:05;19.50;99.90
40828;DHT22;26549;50.918;5.338;2023-06-22T14:44:31;19.50;99.90
40828;DHT22;26549;50.918;5.338;2023-06-22T14:46:57;19.40;99.90
40828;DHT22;26549;50.918;5.338;2023-06-22T14:49:23;19.30;99.90
40828;DHT22;26549;50.918;5.338;2023-06-22T14:51:49;19.30;99.90
40828;DHT22;26549;50.918;5.338;2023-06-22T14:54:16;19.20;99.90
40828;DHT22;26549;50.918;5.338;2023-06-22T14:56:42;19.10;99.90
40828;DHT22;26549;50.918;5.338;2023-06-22T14:59:09;19.20;99.90
40828;DHT22;26549;50.918;5.338;2023-06-22T15:01:36;19.20;99.90
40828;DHT22;26549;50.918;5.338;2023-06-22T15:04:04;19.00;99.90
40828;DHT22;26549;50.918;5.338;2023-06-22T15:06:31;19.00;99.90
40828;DHT22;26549;50.918;5.338;2023-06-22T15:08:58;19.10;99.90
40828;DHT22;26549;50.918;5.338;2023-06-22T15:11:26;19.20;99.90
40828;DHT22;26549;50.918;5.338;2023-06-22T15:13:57;19.20;99.90
40828;DHT22;26549;50.918;5.338;2023-06-22T15:16:26;19.20;99.90
40828;DHT22;26549;50.918;5.338;2023-06-22T15:18:54;19.30;99.90
40828;DHT22;26549;50.918;5.338;2023-06-22T15:21:21;19.20;99.90
40828;DHT22;26549;50.918;5.338;2023-06-22T15:23:47;19.10;99.90
40828;DHT22;26549;50.918;5.338;2023-06-22T15:26:12;19.10;99.90
40828;DHT22;26549;50.918;5.338;2023-06-22T15:28:39;19.10;99.90
40828;DHT22;26549;50.918;5.338;2023-06-22T15:31:05;19.10;99.90
40828;DHT22;26549;50.918;5.338;2023-06-22T15:33:31;19.10;99.90
40828;DHT22;26549;50.918;5.338;2023-06-22T15:35:59;19.10;99.90
40828;DHT22;26549;50.918;5.338;2023-06-22T15:38:29;19.00;99.90
40828;DHT22;26549;50.918;5.338;2023-06-22T15:40:57;19.10;99.90
40828;DHT22;26549;50.918;5.338;2023-06-22T15:43:25;19.10;99.90
40828;DHT22;26549;50.918;5.338;2023-06-22T15:45:52;19.10;99.90